Time;durP1;ratioP1;P1;durP2;ratioP2;P2;SDS_P1;SDS_P2;PMS_P1;PMS_P2;Temp;Humidity;BMP_temperature;BMP_pressure;BME280_temperature;BME280_humidity;BME280_pressure;Samples;Min_cycle;Max_cycle;Signal;HPM_P1;HPM_P2
2021/09/15 00:00:36;;;;;;;11.98;6.35;;;;;;;15.57;84.62;90838.97;4975579;28;20034;-86
2021/09/15 00:03:01;;;;;;;14.27;6.55;;;;;;;15.49;84.78;90840.03;4978798;28;20038;-87
2021/09/15 00:05:27;;;;;;;11.40;6.72;;;;;;;15.43;85.03;90841.44;4978832;28;20033;-87
2021/09/15 00:07:52;;;;;;;10.25;6.05;;;;;;;15.35;85.57;90832.00;4978506;28;20386;-86
2021/09/15 00:10:17;;;;;;;11.60;6.55;;;;;;;15.35;85.22;90842.50;4979306;28;20022;-87
2021/09/15 00:12:43;;;;;;;9.40;5.90;;;;;;;15.30;85.64;90836.44;4963001;28;20033;-87
2021/09/15 00:15:08;;;;;;;15.15;6.68;;;;;;;15.40;85.37;90827.16;4979633;28;20029;-86
2021/09/15 00:17:34;;;;;;;12.80;5.95;;;;;;;15.45;84.92;90820.84;4978729;28;20116;-86
2021/09/15 00:20:00;;;;;;;9.48;6.07;;;;;;;15.30;85.12;90825.94;4979105;28;20018;-87
2021/09/15 00:22:25;;;;;;;13.18;6.50;;;;;;;15.24;86.08;90822.13;4962667;28;20470;-86
2021/09/15 00:24:50;;;;;;;9.68;6.22;;;;;;;15.20;86.11;90826.59;4977133;28;20030;-87
2021/09/15 00:27:16;;;;;;;15.75;6.05;;;;;;;15.24;86.04;90826.63;4979344;28;20030;-87
2021/09/15 00:29:41;;;;;;;10.07;5.75;;;;;;;15.21;86.37;90822.84;4963437;28;20387;-86
2021/09/15 00:32:07;;;;;;;10.23;6.38;;;;;;;15.15;86.80;90815.63;4996084;28;20037;-88
2021/09/15 00:34:32;;;;;;;13.30;7.28;;;;;;;15.09;86.96;90815.22;4982300;28;20509;-88
2021/09/15 00:36:58;;;;;;;12.40;6.32;;;;;;;15.04;87.75;90810.25;4982159;28;20046;-86
2021/09/15 00:39:23;;;;;;;12.52;6.95;;;;;;;15.18;87.39;90813.06;4982063;28;20018;-87
2021/09/15 00:41:49;;;;;;;11.27;6.68;;;;;;;15.23;86.95;90812.75;4998787;28;20030;-87
2021/09/15 00:44:14;;;;;;;10.85;6.07;;;;;;;15.44;85.75;90808.81;4982323;28;20049;-87
2021/09/15 00:46:40;;;;;;;11.70;6.90;;;;;;;15.13;86.88;90804.75;4998327;28;20026;-87
2021/09/15 00:49:05;;;;;;;14.32;6.30;;;;;;;15.14;87.28;90806.25;4981822;28;20026;-86
2021/09/15 00:51:36;;;;;;;11.45;7.05;;;;;;;15.04;87.35;90810.25;4998131;28;20044;-86
2021/09/15 00:54:05;;;;;;;16.65;6.38;;;;;;;15.13;87.38;90784.50;4982256;28;20413;-89
2021/09/15 00:56:31;;;;;;;13.52;6.25;;;;;;;15.30;86.08;90783.94;4966230;28;20057;-86
2021/09/15 00:58:56;;;;;;;11.27;5.97;;;;;;;15.05;87.58;90782.91;4981919;28;20080;-87
2021/09/15 01:01:22;;;;;;;14.32;6.38;;;;;;;15.01;87.52;90785.47;4981582;28;20037;-87
2021/09/15 01:03:47;;;;;;;12.02;6.85;;;;;;;14.96;87.93;90785.06;4981537;28;20153;-87
2021/09/15 01:06:13;;;;;;;15.32;6.68;;;;;;;14.94;88.06;90792.53;4982094;28;20042;-87
2021/09/15 01:08:38;;;;;;;14.77;6.50;;;;;;;14.82;88.57;90783.78;4981667;28;20038;-86
2021/09/15 01:11:04;;;;;;;12.15;6.38;;;;;;;14.80;88.98;90777.34;4981683;28;20095;-86
2021/09/15 01:13:29;;;;;;;13.70;6.72;;;;;;;15.20;86.54;90779.34;4981900;28;20413;-87
2021/09/15 01:15:55;;;;;;;13.02;6.32;;;;;;;14.90;87.38;90763.63;4997729;28;20047;-87
2021/09/15 01:18:20;;;;;;;11.85;6.43;;;;;;;14.86;88.01;90770.69;4981845;28;20567;-86
2021/09/15 01:20:46;;;;;;;9.65;6.32;;;;;;;14.83;87.79;90769.53;4959456;28;20034;-87
2021/09/15 01:23:11;;;;;;;10.88;6.45;;;;;;;14.70;88.54;90770.09;4998955;28;20031;-89
2021/09/15 01:25:37;;;;;;;15.15;7.15;;;;;;;14.67;89.13;90768.97;4969713;28;20052;-87
2021/09/15 01:28:02;;;;;;;10.98;6.70;;;;;;;14.69;89.21;90771.97;4983538;28;20022;-87
2021/09/15 01:30:28;;;;;;;13.23;6.07;;;;;;;14.62;89.41;90763.28;4966145;28;20026;-87
2021/09/15 01:32:53;;;;;;;10.80;6.00;;;;;;;14.62;89.19;90761.41;4982645;28;20034;-87
2021/09/15 01:35:18;;;;;;;12.13;6.15;;;;;;;14.66;89.08;90761.44;4982387;28;20489;-87
2021/09/15 01:37:44;;;;;;;14.20;6.10;;;;;;;14.65;88.94;90760.69;4977894;28;20041;-86
2021/09/15 01:40:10;;;;;;;10.80;6.43;;;;;;;14.64;89.00;90769.69;4963002;28;20026;-87
2021/09/15 01:42:35;;;;;;;13.90;6.82;;;;;;;14.60;89.22;90758.41;4947749;28;20026;-87
2021/09/15 01:45:00;;;;;;;14.63;6.60;;;;;;;14.61;88.81;90762.53;4982926;28;20029;-87
2021/09/15 01:47:26;;;;;;;13.18;6.53;;;;;;;14.61;89.11;90761.78;4966473;28;20029;-86
2021/09/15 01:49:51;;;;;;;11.45;6.63;;;;;;;14.56;89.09;90758.34;4967012;28;20034;-87
2021/09/15 01:52:17;;;;;;;14.10;7.00;;;;;;;14.51;89.24;90756.03;4998870;28;20010;-90
2021/09/15 01:54:44;;;;;;;15.23;6.70;;;;;;;14.50;89.31;90759.75;4990890;28;20033;-90
2021/09/15 01:57:09;;;;;;;12.85;6.70;;;;;;;14.44;89.14;90750.66;4993252;28;20068;-87
2021/09/15 01:59:35;;;;;;;11.63;6.40;;;;;;;14.48;89.53;90756.69;4964204;28;20097;-87
2021/09/15 02:02:00;;;;;;;11.30;6.28;;;;;;;14.48;89.38;90761.94;4966504;28;20474;-87
2021/09/15 02:04:25;;;;;;;10.15;6.45;;;;;;;14.48;89.45;90753.31;4961099;28;20557;-87
2021/09/15 02:06:51;;;;;;;13.80;6.82;;;;;;;14.43;89.86;90743.16;4978688;28;20440;-88
2021/09/15 02:09:17;;;;;;;14.05;6.60;;;;;;;14.48;89.37;90735.72;4979195;28;20474;-88
2021/09/15 02:11:42;;;;;;;9.13;6.47;;;;;;;14.49;89.51;90739.88;5012786;23;20057;-88
2021/09/15 02:14:08;;;;;;;10.88;6.90;;;;;;;14.41;90.32;90734.88;4995773;28;20127;-88
2021/09/15 02:16:33;;;;;;;14.25;7.03;;;;;;;14.43;90.33;90727.44;5013165;28;20018;-87
2021/09/15 02:18:58;;;;;;;13.88;7.25;;;;;;;14.53;89.90;90732.84;4979411;28;20084;-88
2021/09/15 02:21:24;;;;;;;12.30;7.35;;;;;;;14.45;89.94;90730.44;4990242;28;20069;-88
2021/09/15 02:23:49;;;;;;;10.68;7.15;;;;;;;14.41;90.21;90729.66;4992555;28;20422;-88
2021/09/15 02:26:15;;;;;;;12.02;6.53;;;;;;;14.37;90.16;90723.59;4975545;28;20072;-88
2021/09/15 02:28:40;;;;;;;12.55;7.32;;;;;;;14.29;90.56;90713.03;4991819;28;20022;-90
2021/09/15 02:31:06;;;;;;;11.57;7.18;;;;;;;14.30;90.59;90727.63;4935941;28;20050;-88
2021/09/15 02:33:32;;;;;;;15.05;7.57;;;;;;;14.29;90.63;90728.75;4940922;28;20081;-88
2021/09/15 02:35:57;;;;;;;13.15;7.25;;;;;;;14.33;90.46;90728.81;4953969;28;20034;-90
2021/09/15 02:38:22;;;;;;;12.65;7.05;;;;;;;14.51;89.85;90713.31;4975697;28;20084;-88
2021/09/15 02:40:48;;;;;;;12.52;7.28;;;;;;;14.47;89.79;90717.75;4943769;28;20437;-88
2021/09/15 02:43:13;;;;;;;9.80;6.53;;;;;;;14.42;89.69;90718.06;4959713;28;20030;-88
2021/09/15 02:45:39;;;;;;;14.05;6.60;;;;;;;14.34;90.33;90720.56;4975728;28;20033;-89
2021/09/15 02:48:05;;;;;;;15.02;6.78;;;;;;;14.35;89.92;90719.47;4958446;28;20027;-88
2021/09/15 02:50:30;;;;;;;11.98;6.80;;;;;;;14.31;90.41;90718.69;4972493;28;20062;-89
2021/09/15 02:52:57;;;;;;;11.55;6.72;;;;;;;14.28;90.73;90719.38;4963509;28;20034;-89
2021/09/15 02:55:23;;;;;;;13.50;7.28;;;;;;;14.29;90.70;90717.53;4991005;28;20018;-88
2021/09/15 02:57:48;;;;;;;11.07;7.00;;;;;;;14.28;90.94;90714.16;4975459;28;20033;-89
2021/09/15 03:00:14;;;;;;;12.55;6.80;;;;;;;14.32;90.55;90714.19;4991601;28;20026;-89
2021/09/15 03:02:39;;;;;;;11.45;6.88;;;;;;;14.31;90.67;90713.44;4975523;28;20026;-88
2021/09/15 03:05:05;;;;;;;13.05;7.78;;;;;;;14.29;90.78;90707.03;4991690;28;20026;-88
2021/09/15 03:07:31;;;;;;;11.23;6.78;;;;;;;14.27;90.85;90710.00;4959327;28;20041;-89
2021/09/15 03:09:56;;;;;;;12.55;6.70;;;;;;;14.21;91.00;90700.19;4944601;28;20023;-89
2021/09/15 03:12:21;;;;;;;13.98;7.28;;;;;;;14.23;91.01;90709.19;4956119;28;20027;-88
2021/09/15 03:14:47;;;;;;;11.48;6.90;;;;;;;14.31;90.98;90720.53;4956159;28;20033;-88
2021/09/15 03:17:12;;;;;;;11.50;6.93;;;;;;;14.18;91.20;90714.00;4939612;28;20042;-88
2021/09/15 03:19:37;;;;;;;12.27;6.88;;;;;;;14.10;91.50;90718.41;4924079;28;20077;-89
2021/09/15 03:22:03;;;;;;;10.50;6.93;;;;;;;14.05;91.67;90716.06;4972533;28;20539;-87
2021/09/15 03:24:28;;;;;;;14.88;7.25;;;;;;;14.02;91.85;90719.38;4974944;28;20041;-88
2021/09/15 03:26:54;;;;;;;9.93;7.03;;;;;;;14.01;91.79;90725.75;4971734;28;20035;-88
2021/09/15 03:29:19;;;;;;;10.38;7.35;;;;;;;14.10;91.66;90734.13;4939504;28;20031;-88
2021/09/15 03:31:44;;;;;;;11.95;6.47;;;;;;;14.18;91.92;90725.25;4955640;28;20046;-88
2021/09/15 03:34:10;;;;;;;13.55;7.03;;;;;;;14.13;91.77;90725.53;4942876;28;20030;-89
2021/09/15 03:36:35;;;;;;;10.40;6.68;;;;;;;14.16;91.34;90730.06;4975048;28;20108;-88
2021/09/15 03:39:02;;;;;;;13.60;7.15;;;;;;;14.05;92.05;90729.91;4958611;28;20549;-89
2021/09/15 03:41:27;;;;;;;13.85;6.70;;;;;;;14.02;92.40;90727.25;4942952;28;20050;-88
2021/09/15 03:43:53;;;;;;;10.20;7.15;;;;;;;14.03;92.06;90740.00;4954792;28;20053;-89
2021/09/15 03:46:18;;;;;;;12.88;6.35;;;;;;;14.07;91.42;90734.81;4955576;28;20033;-88
2021/09/15 03:48:43;;;;;;;13.90;6.88;;;;;;;14.12;92.13;90737.13;4955228;28;20034;-88
2021/09/15 03:51:09;;;;;;;13.02;6.88;;;;;;;14.17;91.54;90731.59;4986436;28;20486;-88
2021/09/15 03:53:35;;;;;;;12.15;6.65;;;;;;;14.32;90.67;90727.28;4974449;28;20042;-87
2021/09/15 03:56:00;;;;;;;17.23;6.78;;;;;;;14.46;90.22;90732.72;4974911;28;20076;-88
2021/09/15 03:58:25;;;;;;;13.68;6.20;;;;;;;14.37;91.69;90723.59;4973598;28;20422;-88
2021/09/15 04:00:51;;;;;;;14.98;6.65;;;;;;;14.45;90.70;90725.19;4958331;28;20022;-89
2021/09/15 04:03:16;;;;;;;22.17;7.22;;;;;;;14.37;91.36;90732.22;4974610;28;20041;-88
2021/09/15 04:05:42;;;;;;;12.07;6.18;;;;;;;14.50;90.79;90727.56;4990894;28;20026;-88
2021/09/15 04:08:07;;;;;;;11.85;6.78;;;;;;;14.56;90.83;90726.13;4941184;28;20039;-88
2021/09/15 04:10:32;;;;;;;12.68;6.35;;;;;;;14.49;91.37;90726.78;4939226;28;20033;-87
2021/09/15 04:12:58;;;;;;;11.93;6.20;;;;;;;14.47;90.28;90725.59;4939250;28;20579;-89
2021/09/15 04:15:23;;;;;;;11.48;6.28;;;;;;;14.57;90.66;90720.53;4944209;28;20088;-86
2021/09/15 04:17:49;;;;;;;12.35;6.03;;;;;;;14.58;90.11;90719.41;4973734;28;20030;-89
2021/09/15 04:20:14;;;;;;;11.60;6.25;;;;;;;14.54;90.09;90708.13;4958534;28;20486;-89
2021/09/15 04:22:41;;;;;;;14.10;6.43;;;;;;;14.57;90.59;90706.66;4954833;28;20082;-89
2021/09/15 04:33:29;;;;;;;14.93;6.32;;;;;;;14.42;92.08;90705.72;4945185;28;20038;-88
2021/09/15 04:35:55;;;;;;;15.55;6.60;;;;;;;14.46;92.33;90700.50;4970854;28;20402;-89
2021/09/15 04:38:20;;;;;;;17.33;7.32;;;;;;;14.44;92.47;90707.97;4954697;28;20022;-88
2021/09/15 04:40:46;;;;;;;15.73;7.15;;;;;;;14.34;92.06;90709.34;4939008;28;20022;-89
2021/09/15 04:43:11;;;;;;;15.40;7.63;;;;;;;14.20;92.39;90693.44;4938765;28;20026;-89
2021/09/15 04:45:37;;;;;;;14.20;7.30;;;;;;;14.16;92.61;90693.38;4958621;28;20037;-88
2021/09/15 04:48:03;;;;;;;18.48;7.88;;;;;;;14.04;93.43;90691.72;4957874;28;20022;-89
2021/09/15 04:50:28;;;;;;;16.75;7.30;;;;;;;14.42;91.67;90689.22;4973829;28;20019;-88
2021/09/15 04:52:54;;;;;;;14.07;7.28;;;;;;;14.34;91.89;90685.75;4954427;28;20035;-88
2021/09/15 04:55:19;;;;;;;13.68;7.90;;;;;;;14.17;92.67;90689.66;4954987;28;20035;-88
2021/09/15 04:57:45;;;;;;;14.32;7.85;;;;;;;14.05;93.78;90687.25;4954878;28;20027;-88
2021/09/15 05:00:10;;;;;;;16.30;8.25;;;;;;;14.03;93.94;90679.75;4954839;28;20367;-88
2021/09/15 05:02:36;;;;;;;15.88;8.15;;;;;;;14.03;93.91;90677.13;4954906;28;20034;-89
2021/09/15 05:05:01;;;;;;;12.05;6.88;;;;;;;14.05;93.81;90682.00;4939161;28;20506;-88
2021/09/15 05:07:26;;;;;;;16.85;8.30;;;;;;;14.01;94.08;90683.81;4952951;28;20041;-88
2021/09/15 05:09:52;;;;;;;14.32;8.23;;;;;;;13.98;94.28;90674.81;4942795;28;20041;-88
2021/09/15 05:12:17;;;;;;;13.40;7.70;;;;;;;14.14;93.98;90684.38;4977920;28;20045;-88
2021/09/15 05:14:43;;;;;;;14.48;7.80;;;;;;;14.22;93.37;90684.09;4977713;28;20505;-89
2021/09/15 05:17:08;;;;;;;17.63;8.30;;;;;;;14.10;93.59;90685.09;4976859;28;20454;-86
2021/09/15 05:19:33;;;;;;;16.05;8.30;;;;;;;14.08;93.72;90697.78;4993739;28;20037;-87
2021/09/15 05:21:59;;;;;;;14.38;7.28;;;;;;;14.17;93.87;90709.84;4965054;28;20037;-88
2021/09/15 05:24:24;;;;;;;15.80;7.35;;;;;;;14.15;94.03;90714.72;4977453;28;20030;-88
2021/09/15 05:26:50;;;;;;;17.33;7.60;;;;;;;14.16;94.03;90706.47;4961238;28;20549;-88
2021/09/15 05:29:15;;;;;;;13.70;6.90;;;;;;;14.19;94.06;90711.03;4977548;28;20026;-88
2021/09/15 05:31:40;;;;;;;19.65;7.82;;;;;;;14.17;93.89;90708.00;4977345;28;20026;-88
2021/09/15 05:34:06;;;;;;;15.25;8.00;;;;;;;14.18;94.07;90698.28;4977263;28;20470;-89
2021/09/15 05:36:31;;;;;;;15.60;7.93;;;;;;;14.17;93.85;90694.13;4961592;28;20022;-88
2021/09/15 05:38:56;;;;;;;16.50;8.65;;;;;;;14.13;94.00;90678.38;4976942;28;20022;-88
2021/09/15 05:41:22;;;;;;;15.60;8.13;;;;;;;14.16;94.23;90687.38;4976633;28;20030;-88
2021/09/15 05:43:47;;;;;;;13.80;7.93;;;;;;;14.22;93.75;90697.22;4977104;28;20034;-88
2021/09/15 05:46:13;;;;;;;17.27;8.93;;;;;;;14.12;94.24;90700.44;4976361;28;20018;-87
2021/09/15 05:48:38;;;;;;;12.40;7.70;;;;;;;14.09;94.65;90715.00;4941356;28;20038;-88
2021/09/15 05:51:03;;;;;;;16.67;7.93;;;;;;;14.24;94.39;90721.22;4925609;28;20027;-86
2021/09/15 05:53:29;;;;;;;16.90;7.82;;;;;;;14.27;93.89;90730.22;4935993;28;20033;-88
2021/09/15 05:55:54;;;;;;;12.43;7.00;;;;;;;14.26;93.91;90747.06;4976243;28;20026;-89
2021/09/15 05:58:21;;;;;;;17.15;8.00;;;;;;;14.12;94.36;90737.13;4944410;28;20034;-88
2021/09/15 06:00:46;;;;;;;20.00;8.18;;;;;;;14.19;94.07;90750.31;4976977;28;20181;-90
2021/09/15 06:03:12;;;;;;;17.77;7.65;;;;;;;14.26;94.19;90744.44;4960895;28;20530;-89
2021/09/15 06:05:37;;;;;;;16.30;7.13;;;;;;;14.31;94.62;90736.25;4960622;28;20030;-89
2021/09/15 06:08:03;;;;;;;14.13;6.35;;;;;;;14.45;92.37;90725.19;4960234;28;20033;-88
2021/09/15 06:10:28;;;;;;;12.80;5.55;;;;;;;14.61;91.30;90723.19;4993045;28;20038;-89
2021/09/15 06:12:53;;;;;;;14.38;5.68;;;;;;;14.53;91.31;90721.59;4976049;28;20487;-88
2021/09/15 06:15:19;;;;;;;10.30;5.70;;;;;;;14.60;91.16;90726.19;4994475;28;20500;-90
2021/09/15 06:17:44;;;;;;;12.00;5.60;;;;;;;14.50;91.51;90722.31;4973586;28;20027;-89
2021/09/15 06:20:10;;;;;;;16.40;5.80;;;;;;;14.49;91.76;90723.41;4959618;28;20065;-90
2021/09/15 06:22:36;;;;;;;11.50;5.22;;;;;;;14.53;91.80;90726.84;4976137;28;20030;-90
2021/09/15 06:25:02;;;;;;;15.27;5.28;;;;;;;14.55;91.57;90730.59;4963411;28;20029;-91
2021/09/15 06:27:28;;;;;;;16.90;6.30;;;;;;;14.59;90.84;90709.66;4992152;28;20069;-90
2021/09/15 06:29:53;;;;;;;12.95;6.40;;;;;;;14.61;91.48;90717.94;4955906;28;20030;-91
2021/09/15 06:32:19;;;;;;;16.90;6.63;;;;;;;14.53;92.52;90716.34;4992140;28;20049;-89
2021/09/15 06:34:44;;;;;;;15.52;7.82;;;;;;;14.54;92.48;90708.13;4959476;28;20030;-90
2021/09/15 06:37:10;;;;;;;22.13;8.57;;;;;;;14.69;91.88;90713.53;4959277;28;20132;-90
2021/09/15 06:39:35;;;;;;;17.88;7.97;;;;;;;14.72;92.40;90705.72;4959392;28;20027;-89
2021/09/15 06:42:01;;;;;;;17.92;7.82;;;;;;;14.70;92.84;90712.41;4992615;28;20037;-91
2021/09/15 06:44:26;;;;;;;12.63;6.47;;;;;;;14.83;92.26;90711.81;4959587;28;20077;-89
2021/09/15 06:46:52;;;;;;;12.95;6.63;;;;;;;14.81;92.62;90716.69;4973140;28;20384;-89
2021/09/15 06:49:17;;;;;;;11.68;6.00;;;;;;;14.87;92.42;90714.47;4941768;28;20046;-89
2021/09/15 06:51:42;;;;;;;10.05;5.82;;;;;;;14.92;91.94;90722.06;4941583;28;20023;-89
2021/09/15 06:54:08;;;;;;;28.92;11.50;;;;;;;15.06;91.07;90718.81;4953307;28;20022;-90
2021/09/15 06:56:33;;;;;;;20.77;9.27;;;;;;;14.94;90.35;90719.81;4961878;28;20430;-89
2021/09/15 06:58:58;;;;;;;14.02;7.30;;;;;;;14.91;91.13;90710.06;4962643;28;20540;-90
2021/09/15 07:01:24;;;;;;;12.80;7.47;;;;;;;15.10;90.95;90711.00;4976364;28;20022;-90
2021/09/15 07:03:51;;;;;;;16.95;8.30;;;;;;;15.11;89.85;90712.50;4977006;28;20026;-91
2021/09/15 07:06:17;;;;;;;15.68;7.68;;;;;;;15.28;86.46;90717.16;4972672;28;20037;-89
2021/09/15 07:08:42;;;;;;;14.18;7.32;;;;;;;15.40;87.49;90719.50;4975291;28;20034;-88
2021/09/15 07:11:07;;;;;;;13.90;6.85;;;;;;;15.42;87.03;90727.78;4963586;28;20026;-89
2021/09/15 07:13:33;;;;;;;13.60;7.20;;;;;;;15.53;87.28;90728.63;4959497;28;20026;-88
2021/09/15 07:15:58;;;;;;;13.13;7.30;;;;;;;15.52;85.91;90721.13;4960399;28;20018;-90
2021/09/15 07:18:27;;;;;;;13.18;8.15;;;;;;;15.43;87.29;90731.16;4960001;28;20035;-90
2021/09/15 07:20:53;;;;;;;13.38;7.22;;;;;;;15.45;86.16;90728.94;4972832;28;20018;-90
2021/09/15 07:23:18;;;;;;;14.52;7.50;;;;;;;15.51;86.38;90730.09;4957432;28;20023;-90
2021/09/15 07:25:44;;;;;;;14.55;7.13;;;;;;;15.63;85.87;90721.97;4949544;28;20029;-90
2021/09/15 07:28:09;;;;;;;16.65;8.02;;;;;;;15.56;86.60;90736.91;4963125;28;20049;-89
2021/09/15 07:30:34;;;;;;;15.57;7.78;;;;;;;15.59;85.47;90731.69;4975215;28;20022;-90
2021/09/15 07:33:00;;;;;;;18.23;8.07;;;;;;;15.57;86.68;90728.66;4943584;28;20029;-89
2021/09/15 07:35:25;;;;;;;17.58;8.43;;;;;;;15.64;87.19;90733.97;4941297;28;20027;-90
2021/09/15 07:37:51;;;;;;;15.80;8.35;;;;;;;15.68;87.05;90729.53;4960025;28;20406;-90
2021/09/15 07:40:16;;;;;;;16.35;8.25;;;;;;;15.73;86.84;90731.84;4960034;28;20018;-90
2021/09/15 07:42:42;;;;;;;15.52;8.65;;;;;;;15.77;85.44;90737.88;4973394;28;20038;-90
2021/09/15 07:45:07;;;;;;;20.63;10.77;;;;;;;15.87;85.19;90730.44;4957757;28;20046;-90
2021/09/15 07:47:33;;;;;;;19.40;9.15;;;;;;;16.06;84.87;90732.06;4974607;28;20053;-88
2021/09/15 07:49:58;;;;;;;14.65;8.57;;;;;;;16.12;84.29;90736.63;4973587;28;20026;-90
2021/09/15 07:52:24;;;;;;;16.00;8.80;;;;;;;15.98;85.78;90736.53;4958146;28;20086;-90
2021/09/15 07:54:49;;;;;;;13.98;7.80;;;;;;;15.93;86.01;90740.22;4974007;28;20026;-90
2021/09/15 07:57:15;;;;;;;15.20;8.15;;;;;;;15.98;85.99;90741.78;4959572;28;20053;-90
2021/09/15 07:59:43;;;;;;;18.10;8.50;;;;;;;16.00;86.10;90750.03;4939993;28;20030;-90
2021/09/15 08:02:08;;;;;;;18.73;9.85;;;;;;;15.92;86.10;90753.75;4949608;28;20027;-90
2021/09/15 08:04:34;;;;;;;13.60;8.02;;;;;;;16.06;85.63;90747.84;4951090;28;20113;-90
2021/09/15 08:06:59;;;;;;;19.23;8.80;;;;;;;15.96;84.94;90754.53;4938428;28;20030;-89
2021/09/15 08:09:25;;;;;;;17.15;7.85;;;;;;;15.84;85.46;90760.06;4938847;28;20023;-91
2021/09/15 08:11:50;;;;;;;16.05;8.38;;;;;;;15.85;85.41;90762.31;4980169;22;20030;-90
2021/09/15 08:14:15;;;;;;;16.35;8.48;;;;;;;15.72;86.93;90769.75;4942986;28;20038;-91
2021/09/15 08:16:41;;;;;;;18.00;8.30;;;;;;;15.74;86.34;90769.38;4975590;28;20426;-90
2021/09/15 08:19:06;;;;;;;17.05;9.18;;;;;;;15.70;86.99;90784.34;4975198;28;20022;-91
2021/09/15 08:21:32;;;;;;;19.77;8.90;;;;;;;15.68;86.40;90789.19;4958807;28;20038;-90
2021/09/15 08:23:59;;;;;;;21.02;8.43;;;;;;;15.56;88.03;90792.06;4956993;28;20026;-89
2021/09/15 08:26:25;;;;;;;13.75;7.90;;;;;;;15.64;87.31;90789.13;4957743;28;20019;-90
2021/09/15 08:28:50;;;;;;;18.17;8.10;;;;;;;15.68;87.11;90797.06;4940283;28;20037;-90
2021/09/15 08:31:16;;;;;;;14.82;7.07;;;;;;;15.60;87.41;90795.47;4942981;28;20023;-91
2021/09/15 08:33:41;;;;;;;16.45;7.18;;;;;;;15.57;87.77;90793.56;4941153;28;20030;-91
2021/09/15 08:36:07;;;;;;;18.38;8.23;;;;;;;15.62;88.80;90803.75;4956157;28;20398;-91
2021/09/15 08:38:32;;;;;;;13.25;6.55;;;;;;;15.87;86.51;90796.13;4941052;28;20031;-92
2021/09/15 08:40:58;;;;;;;12.48;6.60;;;;;;;15.93;87.10;90786.78;4924517;28;20023;-91
2021/09/15 08:43:23;;;;;;;15.05;7.00;;;;;;;16.07;84.63;90794.78;4955918;28;20146;-90
2021/09/15 08:45:49;;;;;;;14.05;6.10;;;;;;;16.11;84.00;90806.06;4926871;28;20050;-90
2021/09/15 08:48:18;;;;;;;12.07;5.85;;;;;;;16.18;81.13;90798.28;4927008;28;20399;-90
2021/09/15 08:50:49;;;;;;;11.80;6.10;;;;;;;16.11;81.96;90803.44;4943527;28;20561;-90
2021/09/15 08:53:15;;;;;;;11.02;6.10;;;;;;;16.01;81.04;90804.13;4928068;28;20034;-89
2021/09/15 08:55:42;;;;;;;9.32;5.60;;;;;;;15.88;81.43;90805.53;4943617;28;20026;-90
2021/09/15 08:58:07;;;;;;;9.73;5.93;;;;;;;15.88;81.66;90795.00;4934461;28;20034;-89
2021/09/15 09:00:34;;;;;;;13.70;6.20;;;;;;;15.73;82.40;90805.41;4959432;28;20022;-89
2021/09/15 09:03:00;;;;;;;8.18;5.22;;;;;;;15.67;81.87;90814.72;4943418;28;20031;-89
2021/09/15 09:05:25;;;;;;;10.73;4.97;;;;;;;15.75;82.47;90805.78;4943293;28;20187;-89
2021/09/15 09:07:51;;;;;;;10.02;6.45;;;;;;;15.56;84.05;90795.44;4960468;28;20041;-89
2021/09/15 09:10:16;;;;;;;7.97;4.70;;;;;;;15.41;84.12;90809.56;4962953;28;20022;-89
2021/09/15 09:12:47;;;;;;;9.82;4.75;;;;;;;15.38;83.15;90805.78;4930987;29;20042;-89
2021/09/15 09:15:29;;;;;;;9.90;5.20;;;;;;;15.45;84.13;90815.59;4940617;29;20162;-89
2021/09/15 09:17:59;;;;;;;12.88;4.93;;;;;;;15.55;83.88;90817.59;4960696;28;20082;-89
2021/09/15 09:20:36;;;;;;;8.30;4.25;;;;;;;15.45;83.26;90815.59;4927642;28;20542;-89
2021/09/15 09:23:04;;;;;;;8.95;4.45;;;;;;;15.60;84.07;90814.63;4928433;28;20027;-90
2021/09/15 09:25:41;;;;;;;9.10;4.60;;;;;;;15.77;81.16;90802.81;4960923;28;20035;-89
2021/09/15 09:28:33;;;;;;;8.98;4.95;;;;;;;15.96;79.45;90807.09;4944975;28;20529;-90
2021/09/15 09:31:09;;;;;;;8.63;4.88;;;;;;;15.89;82.01;90796.50;4943687;28;20019;-90
2021/09/15 09:33:34;;;;;;;6.97;4.13;;;;;;;16.20;81.00;90801.28;4927879;28;20031;-90
2021/09/15 09:36:09;;;;;;;7.22;4.38;;;;;;;16.21;81.20;90808.03;4927850;28;20050;-91
2021/09/15 09:38:45;;;;;;;11.07;4.97;;;;;;;15.93;81.87;90807.81;4927220;28;20037;-89
2021/09/15 09:41:18;;;;;;;10.07;4.72;;;;;;;15.84;82.55;90820.50;4928264;28;20184;-89
2021/09/15 09:43:48;;;;;;;7.63;4.20;;;;;;;15.73;81.11;90821.16;4927571;28;20478;-90
2021/09/15 09:46:18;;;;;;;9.75;4.60;;;;;;;15.71;81.61;90818.13;4927223;28;20039;-90
2021/09/15 09:48:48;;;;;;;8.38;4.63;;;;;;;15.61;82.20;90808.25;4928414;28;20031;-89
2021/09/15 09:51:34;;;;;;;10.95;5.20;;;;;;;15.73;80.95;90809.91;4943355;28;20034;-90
2021/09/15 09:54:14;;;;;;;10.30;4.90;;;;;;;15.78;81.66;90806.94;4927088;28;20388;-90
2021/09/15 09:56:44;;;;;;;9.00;4.63;;;;;;;15.67;82.14;90798.94;4927224;28;20034;-89
2021/09/15 09:59:09;;;;;;;11.38;5.07;;;;;;;15.62;82.97;90793.22;4943228;28;20022;-90
2021/09/15 10:01:45;;;;;;;10.55;5.13;;;;;;;15.66;83.64;90788.81;4927004;28;20030;-90
2021/09/15 10:04:10;;;;;;;11.52;4.88;;;;;;;15.64;80.83;90791.75;4943717;28;20026;-89
2021/09/15 10:06:37;;;;;;;8.30;5.10;;;;;;;15.57;80.68;90781.19;4926898;28;20030;-90
2021/09/15 10:09:03;;;;;;;8.63;4.63;;;;;;;15.32;82.00;90778.31;4942387;28;20546;-89
2021/09/15 10:11:31;;;;;;;7.72;4.47;;;;;;;15.28;81.64;90765.16;4926362;28;20031;-88
2021/09/15 10:13:57;;;;;;;9.65;4.47;;;;;;;15.18;82.90;90770.31;4942759;28;20029;-91
2021/09/15 10:16:22;;;;;;;9.00;4.80;;;;;;;15.27;83.18;90761.03;4927143;28;20035;-89
2021/09/15 10:19:06;;;;;;;10.43;4.63;;;;;;;15.27;84.14;90753.16;4957862;28;20023;-90
2021/09/15 10:21:34;;;;;;;10.32;5.30;;;;;;;15.20;84.81;90741.84;4958566;28;20450;-90
2021/09/15 10:23:59;;;;;;;15.13;5.78;;;;;;;15.33;83.65;90750.19;4957608;28;20125;-90
2021/09/15 10:26:28;;;;;;;10.48;4.90;;;;;;;15.34;82.65;90756.97;4941819;28;20113;-89
2021/09/15 10:29:31;;;;;;;10.90;4.82;;;;;;;15.39;81.73;90754.00;4941733;28;20053;-89
2021/09/15 10:31:59;;;;;;;14.95;5.40;;;;;;;15.29;83.99;90752.78;4942334;28;20031;-89
2021/09/15 10:37:11;;;;;;;11.02;4.75;;;;;;;15.42;82.57;90733.03;4976200;28;20031;-89
2021/09/15 10:40:10;;;;;;;12.32;4.50;;;;;;;15.54;82.50;90722.25;4960162;28;20063;-89
2021/09/15 10:45:09;;;;;;;9.75;4.13;;;;;;;16.11;81.04;90721.97;4976796;28;20145;-90
2021/09/15 10:47:41;;;;;;;;;;;;;;;16.35;80.24;90719.84;4959975;28;20053;-89
2021/09/15 10:50:07;;;;;;;12.38;4.80;;;;;;;16.56;78.79;90722.59;4959628;28;19944;-89
2021/09/15 10:52:43;;;;;;;11.40;5.10;;;;;;;16.52;81.53;90711.31;4943160;28;20085;-89
2021/09/15 10:55:16;;;;;;;22.05;6.82;;;;;;;16.75;81.12;90702.41;4943058;28;20022;-90
2021/09/15 10:57:44;;;;;;;15.70;5.07;;;;;;;16.80;80.20;90709.94;4942926;28;20582;-89
2021/09/15 11:00:15;;;;;;;16.33;6.28;;;;;;;16.81;82.01;90706.19;4943346;28;20046;-90
2021/09/15 11:02:41;;;;;;;11.63;5.07;;;;;;;16.73;78.94;90695.59;4959127;28;20523;-89
2021/09/15 11:05:25;;;;;;;13.88;5.13;;;;;;;16.88;77.42;90706.22;4943189;28;20033;-90
2021/09/15 11:07:50;;;;;;;12.10;5.27;;;;;;;16.87;80.29;90702.84;4957958;28;20034;-90
2021/09/15 11:10:37;;;;;;;11.90;4.60;;;;;;;16.79;80.22;90703.19;4975693;28;21119;-89
2021/09/15 11:13:03;;;;;;;10.02;4.28;;;;;;;16.60;77.62;90707.56;4959427;28;20039;-90
2021/09/15 11:15:36;;;;;;;12.82;4.60;;;;;;;16.56;78.08;90700.81;4924337;29;20023;-90
2021/09/15 11:18:02;;;;;;;12.75;4.43;;;;;;;16.41;79.61;90699.97;4929596;28;20077;-90
2021/09/15 11:20:28;;;;;;;12.93;4.60;;;;;;;16.38;80.82;90700.72;4943232;28;20023;-90
2021/09/15 11:22:54;;;;;;;14.38;4.45;;;;;;;16.25;80.03;90708.94;4927906;28;20045;-89
2021/09/15 11:25:20;;;;;;;11.20;4.95;;;;;;;16.21;81.00;90718.66;4927887;28;20430;-89
2021/09/15 11:28:11;;;;;;;13.82;4.93;;;;;;;16.13;80.72;90706.59;4943156;28;20022;-90
2021/09/15 11:30:39;;;;;;;11.70;5.15;;;;;;;16.09;81.90;90711.06;4942958;28;20506;-89
2021/09/15 11:33:05;;;;;;;15.38;4.68;;;;;;;16.15;80.78;90714.88;4927840;28;20023;-89
2021/09/15 11:35:40;;;;;;;10.75;4.68;;;;;;;16.16;80.33;90711.13;4928195;28;20035;-90
2021/09/15 11:38:06;;;;;;;13.95;5.53;;;;;;;16.11;83.38;90703.56;4929070;28;20019;-90